createdAt,value
2023-01-26T00:01:29.170Z,-0.28
2023-01-26T00:03:57.970Z,-0.31
2023-01-26T00:06:26.174Z,-0.30
2023-01-26T00:08:55.642Z,-0.27
2023-01-26T00:11:26.834Z,-0.24
2023-01-26T00:13:55.598Z,-0.29
2023-01-26T00:16:23.474Z,-0.30
2023-01-26T00:18:51.734Z,-0.34
2023-01-26T00:21:21.832Z,-0.27
2023-01-26T00:23:50.739Z,-0.31
2023-01-26T00:26:20.893Z,-0.34
2023-01-26T00:28:50.691Z,-0.33
2023-01-26T00:31:22.354Z,-0.31
2023-01-26T00:33:50.603Z,-0.30
2023-01-26T00:36:18.443Z,-0.25
2023-01-26T00:38:46.254Z,-0.27
2023-01-26T00:41:35.283Z,-0.27
2023-01-26T00:44:04.647Z,-0.33
2023-01-26T00:46:32.576Z,-0.31
2023-01-26T00:49:01.698Z,-0.30
2023-01-26T00:51:29.667Z,-0.29
2023-01-26T00:53:57.705Z,-0.29
2023-01-26T00:56:28.035Z,-0.31
2023-01-26T00:58:56.097Z,-0.31
2023-01-26T01:01:25.393Z,-0.30
2023-01-26T01:03:53.274Z,-0.31
2023-01-26T01:06:21.272Z,-0.33
2023-01-26T01:08:51.598Z,-0.31
2023-01-26T01:11:19.440Z,-0.32
2023-01-26T01:13:47.266Z,-0.30
2023-01-26T01:16:17.059Z,-0.32
2023-01-26T01:18:46.460Z,-0.30
2023-01-26T01:21:17.170Z,-0.25
2023-01-26T01:23:45.288Z,-0.25
2023-01-26T01:26:14.678Z,-0.25
2023-01-26T01:28:43.524Z,-0.22
2023-01-26T01:31:13.973Z,-0.24
2023-01-26T01:33:42.563Z,-0.25
2023-01-26T01:36:17.331Z,-0.23
2023-01-26T01:38:47.523Z,-0.25
2023-01-26T01:41:17.242Z,-0.27
2023-01-26T01:43:46.226Z,-0.25
2023-01-26T01:46:28.062Z,-0.27
2023-01-26T01:49:00.812Z,-0.24
2023-01-26T01:51:35.035Z,-0.26
2023-01-26T01:54:07.329Z,-0.23
2023-01-26T01:56:38.750Z,-0.28
2023-01-26T01:59:07.758Z,-0.25
2023-01-26T02:01:35.893Z,-0.26
2023-01-26T02:04:07.239Z,-0.27
2023-01-26T02:06:47.421Z,-0.27
2023-01-26T02:09:30.689Z,-0.27
2023-01-26T02:12:25.744Z,-0.30
2023-01-26T02:14:54.450Z,-0.29
2023-01-26T02:17:22.749Z,-0.28
2023-01-26T02:19:59.475Z,-0.30
2023-01-26T02:22:39.152Z,-0.29
2023-01-26T02:25:14.074Z,-0.28
2023-01-26T02:27:44.117Z,-0.26
2023-01-26T02:30:14.473Z,-0.31
2023-01-26T02:32:42.680Z,-0.26
2023-01-26T02:35:11.077Z,-0.29
2023-01-26T02:37:39.623Z,-0.28
2023-01-26T02:40:16.819Z,-0.26
2023-01-26T02:42:45.184Z,-0.29
2023-01-26T02:45:16.647Z,-0.28
2023-01-26T02:47:45.951Z,-0.29
2023-01-26T02:50:14.085Z,-0.27
2023-01-26T02:52:44.058Z,-0.32
2023-01-26T02:55:23.224Z,-0.29
2023-01-26T02:57:54.320Z,-0.31
2023-01-26T03:00:24.829Z,-0.28
2023-01-26T03:02:54.893Z,-0.32
2023-01-26T03:05:24.677Z,-0.38
2023-01-26T03:07:53.773Z,-0.30
2023-01-26T03:10:24.208Z,-0.36
2023-01-26T03:12:54.653Z,-0.35
2023-01-26T03:15:40.150Z,-0.38
2023-01-26T03:18:29.722Z,-0.32
2023-01-26T03:21:17.372Z,-0.35
2023-01-26T03:24:02.662Z,-0.37
2023-01-26T03:26:48.255Z,-0.36
2023-01-26T03:29:17.786Z,-0.37
2023-01-26T03:31:46.249Z,-0.37
2023-01-26T03:34:14.562Z,-0.38
2023-01-26T03:36:43.464Z,-0.45
2023-01-26T03:39:40.116Z,-0.39
2023-01-26T03:42:25.317Z,-0.44
2023-01-26T03:45:12.187Z,-0.43
2023-01-26T03:47:59.993Z,-0.39
2023-01-26T03:50:45.840Z,-0.47
2023-01-26T03:53:32.837Z,-0.50
2023-01-26T03:56:18.428Z,-0.54
2023-01-26T03:58:48.841Z,-0.57
2023-01-26T04:01:21.776Z,-0.58
2023-01-26T04:04:12.023Z,-0.49
2023-01-26T04:06:59.465Z,-0.52
2023-01-26T04:09:27.649Z,-0.53
2023-01-26T04:11:56.508Z,-0.52
2023-01-26T04:14:49.709Z,-0.58
2023-01-26T04:17:41.818Z,-0.54
2023-01-26T04:20:28.572Z,-0.56
2023-01-26T04:22:56.983Z,-0.52
2023-01-26T04:25:24.980Z,-0.53
2023-01-26T04:27:53.394Z,-0.54
2023-01-26T04:30:21.717Z,-0.52
2023-01-26T04:32:52.336Z,-0.55
2023-01-26T04:35:20.215Z,-0.58
2023-01-26T04:37:49.113Z,-0.56
2023-01-26T04:40:17.864Z,-0.57
2023-01-26T04:42:47.175Z,-0.60
2023-01-26T04:45:15.134Z,-0.61
2023-01-26T04:47:44.907Z,-0.53
2023-01-26T04:50:15.145Z,-0.59
2023-01-26T04:52:43.246Z,-0.61
2023-01-26T04:55:11.436Z,-0.59
2023-01-26T04:57:42.191Z,-0.65
2023-01-26T05:00:12.848Z,-0.63
2023-01-26T05:02:42.073Z,-0.68
2023-01-26T05:05:10.995Z,-0.66
2023-01-26T05:07:40.195Z,-0.68
2023-01-26T05:10:10.211Z,-0.66
2023-01-26T05:12:54.848Z,-0.70
2023-01-26T05:15:48.819Z,-0.70
2023-01-26T05:18:26.995Z,-0.72
2023-01-26T05:21:27.335Z,-0.73
2023-01-26T05:23:56.952Z,-0.72
2023-01-26T05:27:12.508Z,-0.73
2023-01-26T05:29:41.356Z,-0.73
2023-01-26T05:32:09.198Z,-0.71
2023-01-26T05:34:37.621Z,-0.71
2023-01-26T05:37:06.683Z,-0.80
2023-01-26T05:39:37.544Z,-0.72
2023-01-26T05:42:07.292Z,-0.69
2023-01-26T05:44:53.821Z,-0.70
2023-01-26T05:47:23.793Z,-0.71
2023-01-26T05:49:52.291Z,-0.69
2023-01-26T05:52:26.364Z,-0.69
2023-01-26T05:54:55.969Z,-0.70
2023-01-26T05:57:25.044Z,-0.69
2023-01-26T06:00:00.017Z,-0.70
2023-01-26T06:02:28.293Z,-0.70
2023-01-26T06:04:56.476Z,-0.71
2023-01-26T06:07:24.326Z,-0.69
2023-01-26T06:10:09.146Z,-0.67
2023-01-26T06:13:03.059Z,-0.72
2023-01-26T06:15:53.687Z,-0.78
2023-01-26T06:18:26.268Z,-0.78
2023-01-26T06:21:00.199Z,-0.81
2023-01-26T06:23:28.538Z,-0.84
2023-01-26T06:26:01.609Z,-0.81
2023-01-26T06:28:31.808Z,-0.90
2023-01-26T06:31:03.362Z,-0.87
2023-01-26T06:33:34.961Z,-0.84
2023-01-26T06:36:03.886Z,-0.83
2023-01-26T06:38:32.601Z,-0.87
2023-01-26T06:41:03.362Z,-0.91
2023-01-26T06:43:33.054Z,-1.00
2023-01-26T06:46:02.690Z,-0.94
2023-01-26T06:48:33.304Z,-0.95
2023-01-26T06:51:07.505Z,-0.95
2023-01-26T06:53:40.034Z,-1.02
2023-01-26T06:56:29.000Z,-1.00
2023-01-26T06:59:17.108Z,-1.01
2023-01-26T07:02:03.985Z,-0.99
2023-01-26T07:04:32.085Z,-1.01
2023-01-26T07:06:59.916Z,-0.94
2023-01-26T07:09:27.723Z,-0.97
2023-01-26T07:11:56.998Z,-1.01
2023-01-26T07:14:24.857Z,-1.00
2023-01-26T07:16:52.863Z,-0.98
2023-01-26T07:19:20.922Z,-0.99
2023-01-26T07:21:48.761Z,-1.02
2023-01-26T07:24:16.642Z,-1.02
2023-01-26T07:26:44.510Z,-0.99
2023-01-26T07:29:13.739Z,-1.01
2023-01-26T07:31:44.477Z,-1.01
2023-01-26T07:34:12.938Z,-1.00
2023-01-26T07:36:41.168Z,-1.00
2023-01-26T07:39:09.163Z,-1.03
2023-01-26T07:41:37.119Z,-1.02
2023-01-26T07:44:25.741Z,-1.00
2023-01-26T07:46:54.507Z,-1.00
2023-01-26T07:49:22.445Z,-1.07
2023-01-26T07:51:52.546Z,-1.05
2023-01-26T07:54:21.450Z,-1.01
2023-01-26T07:56:52.491Z,-1.00
2023-01-26T07:59:20.593Z,-1.08
2023-01-26T08:01:51.917Z,-1.08
2023-01-26T08:04:20.019Z,-1.06
2023-01-26T08:06:47.909Z,-1.07
2023-01-26T08:09:15.856Z,-1.09
2023-01-26T08:11:43.733Z,-1.10
2023-01-26T08:14:11.665Z,-1.04
2023-01-26T08:16:40.290Z,-1.03
2023-01-26T08:19:09.653Z,-1.00
2023-01-26T08:21:37.550Z,-1.00
2023-01-26T08:24:06.532Z,-1.01
2023-01-26T08:26:34.633Z,-1.05
2023-01-26T08:29:02.459Z,-1.10
2023-01-26T08:31:30.538Z,-1.07
2023-01-26T08:33:58.372Z,-1.07
2023-01-26T08:36:28.652Z,-1.05
2023-01-26T08:38:56.517Z,-1.03
2023-01-26T08:41:24.468Z,-1.01
2023-01-26T08:43:53.031Z,-1.04
2023-01-26T08:46:20.968Z,-1.06
2023-01-26T08:48:48.879Z,-1.04
2023-01-26T08:51:16.727Z,-1.14
2023-01-26T08:53:46.165Z,-1.00
2023-01-26T08:56:14.199Z,-1.01
2023-01-26T08:58:42.192Z,-1.05
2023-01-26T09:01:12.993Z,-1.17
2023-01-26T09:03:40.902Z,-1.09
2023-01-26T09:06:10.454Z,-1.08
2023-01-26T09:08:38.432Z,-1.08
2023-01-26T09:11:08.702Z,-1.04
2023-01-26T09:13:37.253Z,-1.08
2023-01-26T09:16:06.311Z,-1.05
2023-01-26T09:18:34.336Z,-1.00
2023-01-26T09:21:06.185Z,-1.07
2023-01-26T09:23:35.283Z,-1.01
2023-01-26T09:26:03.547Z,-1.01
2023-01-26T09:28:32.733Z,-1.07
2023-01-26T09:31:05.775Z,-1.01
2023-01-26T09:33:34.078Z,-1.05
2023-01-26T09:36:05.811Z,-1.03
2023-01-26T09:38:33.673Z,-1.01
2023-01-26T09:41:08.308Z,-1.07
2023-01-26T09:43:41.657Z,-1.03
2023-01-26T09:46:23.948Z,-1.11
2023-01-26T09:49:04.074Z,-1.04
2023-01-26T09:51:36.087Z,-1.00
2023-01-26T09:54:16.045Z,-0.98
2023-01-26T09:56:44.157Z,-1.00
2023-01-26T09:59:23.990Z,-0.97
2023-01-26T10:01:57.296Z,-0.97
2023-01-26T10:04:33.600Z,-0.97
2023-01-26T10:07:04.302Z,-1.00
2023-01-26T10:09:48.617Z,-1.07
2023-01-26T10:12:21.029Z,-1.03
2023-01-26T10:14:57.305Z,-1.02
2023-01-26T10:17:32.067Z,-1.14
2023-01-26T10:20:05.537Z,-1.12
2023-01-26T10:22:41.335Z,-1.13
2023-01-26T10:25:16.879Z,-1.01
2023-01-26T10:27:46.150Z,-1.05
2023-01-26T10:30:17.489Z,-1.06
2023-01-26T10:32:48.241Z,-1.04
2023-01-26T10:35:18.801Z,-1.04
2023-01-26T10:37:47.045Z,-1.04
2023-01-26T10:40:15.315Z,-1.10
2023-01-26T10:42:56.131Z,-1.07
2023-01-26T10:45:31.745Z,-1.03
2023-01-26T10:48:15.100Z,-1.05
2023-01-26T10:50:43.179Z,-1.13
2023-01-26T10:53:17.153Z,-1.02
2023-01-26T10:55:45.016Z,-1.05
2023-01-26T10:58:43.055Z,-1.06
2023-01-26T11:01:15.689Z,-1.11
2023-01-26T11:03:44.042Z,-1.05
2023-01-26T11:06:16.371Z,-1.08
2023-01-26T11:08:45.057Z,-1.07
2023-01-26T11:11:26.739Z,-1.06
2023-01-26T11:14:13.865Z,-1.05
2023-01-26T11:16:47.919Z,-1.03
2023-01-26T11:19:26.659Z,-1.10
2023-01-26T11:21:59.740Z,-1.09
2023-01-26T11:24:35.291Z,-1.10
2023-01-26T11:27:30.420Z,-1.12
2023-01-26T11:30:15.339Z,-1.12
2023-01-26T11:32:51.946Z,-1.10
2023-01-26T11:35:30.090Z,-1.23
2023-01-26T11:38:09.529Z,-1.15
2023-01-26T11:40:45.706Z,-1.11
2023-01-26T11:43:28.414Z,-1.13
2023-01-26T11:46:07.703Z,-1.22
2023-01-26T11:48:45.170Z,-1.12
2023-01-26T11:51:21.891Z,-1.11
2023-01-26T11:54:25.000Z,-1.17
2023-01-26T11:57:04.480Z,-1.16
2023-01-26T11:59:37.768Z,-1.15
2023-01-26T12:02:27.615Z,-1.15
2023-01-26T12:05:00.983Z,-1.19
2023-01-26T12:07:34.544Z,-1.18
2023-01-26T12:10:06.075Z,-1.17
2023-01-26T12:12:39.547Z,-1.17
2023-01-26T12:15:14.375Z,-1.23
2023-01-26T12:17:49.814Z,-1.16
2023-01-26T12:20:28.436Z,-1.23
2023-01-26T12:23:04.695Z,-1.26
2023-01-26T12:25:35.942Z,-1.31
2023-01-26T12:28:17.031Z,-1.24
2023-01-26T12:30:53.300Z,-1.32
2023-01-26T12:33:21.489Z,-1.28
2023-01-26T12:36:05.059Z,-1.24
2023-01-26T12:38:46.348Z,-1.20
2023-01-26T12:41:20.350Z,-1.25
2023-01-26T12:44:09.655Z,-1.18
2023-01-26T12:46:41.841Z,-1.26
2023-01-26T12:49:16.187Z,-1.21
2023-01-26T12:51:51.798Z,-1.28
2023-01-26T12:54:24.459Z,-1.30
2023-01-26T12:56:55.930Z,-1.29
2023-01-26T12:59:39.506Z,-1.26
2023-01-26T13:02:27.281Z,-1.26
2023-01-26T13:04:55.893Z,-1.26
2023-01-26T13:07:36.687Z,-1.20
2023-01-26T13:10:22.855Z,-1.23
2023-01-26T13:12:52.484Z,-1.24
2023-01-26T13:15:21.481Z,-1.29
2023-01-26T13:17:53.008Z,-1.29
2023-01-26T13:20:42.188Z,-1.33
2023-01-26T13:23:40.777Z,-1.42
2023-01-26T13:26:25.157Z,-1.30
2023-01-26T13:28:54.390Z,-1.29
2023-01-26T13:31:33.902Z,-1.28
2023-01-26T13:34:07.120Z,-1.28
2023-01-26T13:36:37.792Z,-1.26
2023-01-26T13:39:15.125Z,-1.32
2023-01-26T13:41:47.711Z,-1.28
2023-01-26T13:44:21.077Z,-1.23
2023-01-26T13:46:56.339Z,-1.12
2023-01-26T13:49:28.723Z,-1.24
2023-01-26T13:51:56.575Z,-1.32
2023-01-26T13:54:28.044Z,-1.28
2023-01-26T13:57:04.477Z,-1.28
2023-01-26T13:59:33.871Z,-1.26
2023-01-26T14:02:02.069Z,-1.29
2023-01-26T14:04:31.496Z,-1.30
2023-01-26T14:07:03.872Z,-1.31
2023-01-26T14:09:36.151Z,-1.28
2023-01-26T14:12:06.350Z,-1.38
2023-01-26T14:14:38.837Z,-1.38
2023-01-26T14:17:09.350Z,-1.30
2023-01-26T14:19:42.158Z,-1.35
2023-01-26T14:22:13.467Z,-1.34
2023-01-26T14:24:43.145Z,-1.33
2023-01-26T14:27:29.754Z,-1.33
2023-01-26T14:29:58.672Z,-1.32
2023-01-26T14:32:29.555Z,-1.31
2023-01-26T14:34:59.723Z,-1.34
2023-01-26T14:37:28.702Z,-1.31
2023-01-26T14:40:20.659Z,-1.30
2023-01-26T14:42:50.090Z,-1.26
2023-01-26T14:45:18.753Z,-1.29
2023-01-26T14:47:46.690Z,-1.31
2023-01-26T14:50:23.329Z,-1.31
2023-01-26T14:52:51.278Z,-1.35
2023-01-26T14:55:26.538Z,-1.36
2023-01-26T14:57:54.841Z,-1.36
2023-01-26T15:00:28.609Z,-1.35
2023-01-26T15:02:58.815Z,-1.32
2023-01-26T15:05:33.784Z,-1.35
2023-01-26T15:08:03.748Z,-1.35
2023-01-26T15:10:36.334Z,-1.38
2023-01-26T15:13:08.581Z,-1.30
2023-01-26T15:15:39.169Z,-1.33
2023-01-26T15:18:18.618Z,-1.38
2023-01-26T15:21:00.152Z,-1.33
2023-01-26T15:23:30.997Z,-1.32
2023-01-26T15:26:08.302Z,-1.35
2023-01-26T15:28:36.989Z,-1.32
2023-01-26T15:31:05.370Z,-1.35
2023-01-26T15:33:46.877Z,-1.32
2023-01-26T15:36:33.528Z,-1.37
2023-01-26T15:39:05.424Z,-1.36
2023-01-26T15:41:34.572Z,-1.38
2023-01-26T15:44:02.431Z,-1.38
2023-01-26T15:46:30.314Z,-1.39
2023-01-26T15:48:58.264Z,-1.44
2023-01-26T15:51:26.134Z,-1.42
2023-01-26T15:53:54.064Z,-1.37
2023-01-26T15:56:21.912Z,-1.40
2023-01-26T15:58:51.139Z,-1.36
2023-01-26T16:01:22.795Z,-1.35
2023-01-26T16:03:50.758Z,-1.36
2023-01-26T16:06:24.679Z,-1.38
2023-01-26T16:08:52.912Z,-1.35
2023-01-26T16:11:21.703Z,-1.40
2023-01-26T16:14:02.956Z,-1.38
2023-01-26T16:16:31.954Z,-1.43
2023-01-26T16:19:00.104Z,-1.41
2023-01-26T16:21:31.413Z,-1.48
2023-01-26T16:24:00.011Z,-1.42
2023-01-26T16:26:28.996Z,-1.48
2023-01-26T16:28:58.522Z,-1.40
2023-01-26T16:31:29.537Z,-1.44
2023-01-26T16:33:58.252Z,-1.48
2023-01-26T16:36:26.132Z,-1.54
2023-01-26T16:38:54.103Z,-1.48
2023-01-26T16:41:25.960Z,-1.53
2023-01-26T16:43:55.863Z,-1.51
2023-01-26T16:46:25.855Z,-1.60
2023-01-26T16:48:53.885Z,-1.57
2023-01-26T16:51:25.235Z,-1.51
2023-01-26T16:53:53.953Z,-1.52
2023-01-26T16:56:22.586Z,-1.59
2023-01-26T16:58:50.459Z,-1.60
2023-01-26T17:01:21.123Z,-1.60
2023-01-26T17:03:51.104Z,-1.64
2023-01-26T17:06:20.296Z,-1.59
2023-01-26T17:08:48.544Z,-1.57
2023-01-26T17:11:18.507Z,-1.57
2023-01-26T17:13:46.787Z,-1.58
2023-01-26T17:16:16.768Z,-1.57
2023-01-26T17:18:45.429Z,-1.61
2023-01-26T17:21:15.858Z,-1.60
2023-01-26T17:23:45.221Z,-1.57
2023-01-26T17:26:15.321Z,-1.58
2023-01-26T17:28:43.548Z,-1.58
2023-01-26T17:31:13.316Z,-1.55
2023-01-26T17:33:41.184Z,-1.57
2023-01-26T17:36:09.655Z,-1.60
2023-01-26T17:38:38.874Z,-1.59
2023-01-26T17:41:07.022Z,-1.60
2023-01-26T17:43:35.305Z,-1.59
2023-01-26T17:46:05.457Z,-1.64
2023-01-26T17:48:34.153Z,-1.59
2023-01-26T17:51:01.967Z,-1.59
2023-01-26T17:53:29.828Z,-1.57
2023-01-26T17:56:00.719Z,-1.66
2023-01-26T17:58:28.537Z,-1.65
2023-01-26T18:00:56.366Z,-1.59
2023-01-26T18:03:26.319Z,-1.63
2023-01-26T18:05:55.562Z,-1.61
2023-01-26T18:08:24.646Z,-1.72
2023-01-26T18:10:59.967Z,-1.65
2023-01-26T18:13:28.250Z,-1.63
2023-01-26T18:15:56.488Z,-1.69
2023-01-26T18:18:24.685Z,-1.66
2023-01-26T18:20:53.021Z,-1.66
2023-01-26T18:23:21.514Z,-1.78
2023-01-26T18:25:49.655Z,-1.66
2023-01-26T18:28:18.991Z,-1.79
2023-01-26T18:30:46.869Z,-1.91
2023-01-26T18:33:14.831Z,-1.81
2023-01-26T18:35:42.759Z,-1.85
2023-01-26T18:38:11.735Z,-1.84
2023-01-26T18:40:40.409Z,-1.81
2023-01-26T18:43:09.692Z,-1.82
2023-01-26T18:45:41.858Z,-1.81
2023-01-26T18:48:09.895Z,-1.82
2023-01-26T18:50:39.042Z,-1.85
2023-01-26T18:53:07.218Z,-1.85
2023-01-26T18:55:35.192Z,-2.00
2023-01-26T18:58:02.995Z,-1.98
2023-01-26T19:00:30.851Z,-1.95
2023-01-26T19:03:00.244Z,-2.00
2023-01-26T19:05:28.347Z,-2.03
2023-01-26T19:07:56.162Z,-2.00
2023-01-26T19:10:24.328Z,-2.05
2023-01-26T19:12:52.271Z,-1.98
2023-01-26T19:15:20.129Z,-1.94
2023-01-26T19:17:48.534Z,-2.04
2023-01-26T19:20:18.487Z,-2.06
2023-01-26T19:22:53.815Z,-2.11
2023-01-26T19:25:21.656Z,-2.01
2023-01-26T19:27:49.609Z,-1.98
2023-01-26T19:30:18.503Z,-2.05
2023-01-26T19:33:03.135Z,-2.05
2023-01-26T19:35:33.108Z,-2.04
2023-01-26T19:38:00.908Z,-2.08
2023-01-26T19:40:28.922Z,-2.08
2023-01-26T19:42:56.786Z,-2.06
2023-01-26T19:45:24.887Z,-2.04
2023-01-26T19:47:52.736Z,-2.09
2023-01-26T19:50:20.825Z,-2.05
2023-01-26T19:52:50.051Z,-2.04
2023-01-26T19:55:18.113Z,-2.00
2023-01-26T19:57:45.908Z,-2.03
2023-01-26T20:00:15.059Z,-2.15
2023-01-26T20:02:43.225Z,-2.15
2023-01-26T20:05:11.606Z,-2.09
2023-01-26T20:07:39.642Z,-2.13
2023-01-26T20:10:10.299Z,-2.14
2023-01-26T20:12:38.116Z,-2.08
2023-01-26T20:15:07.035Z,-2.13
2023-01-26T20:17:35.290Z,-2.10
2023-01-26T20:20:03.422Z,-2.16
2023-01-26T20:22:34.088Z,-2.11
2023-01-26T20:25:01.943Z,-2.04
2023-01-26T20:27:32.330Z,-2.07
2023-01-26T20:30:00.563Z,-2.10
2023-01-26T20:32:28.810Z,-2.05
2023-01-26T20:34:56.662Z,-2.03
2023-01-26T20:37:24.528Z,-2.00
2023-01-26T20:39:52.316Z,-2.03
2023-01-26T20:42:20.854Z,-2.04
2023-01-26T20:44:50.803Z,-2.05
2023-01-26T20:47:18.662Z,-2.06
2023-01-26T20:49:46.642Z,-2.09
2023-01-26T20:52:14.473Z,-2.09
2023-01-26T20:54:42.284Z,-2.03
2023-01-26T20:57:10.111Z,-2.01
2023-01-26T20:59:38.521Z,-2.07
2023-01-26T21:02:07.855Z,-2.05
2023-01-26T21:04:36.496Z,-2.08
2023-01-26T21:07:04.413Z,-2.05
2023-01-26T21:09:32.546Z,-2.13
2023-01-26T21:12:00.419Z,-2.11
2023-01-26T21:14:28.558Z,-2.07
2023-01-26T21:16:56.391Z,-2.15
2023-01-26T21:19:25.588Z,-2.18
2023-01-26T21:21:53.462Z,-2.15
2023-01-26T21:24:21.412Z,-2.16
2023-01-26T21:26:49.259Z,-2.14
2023-01-26T21:29:17.613Z,-2.13
2023-01-26T21:31:48.701Z,-2.14
2023-01-26T21:34:16.593Z,-2.08
2023-01-26T21:36:46.499Z,-2.16
2023-01-26T21:39:15.696Z,-2.25
2023-01-26T21:41:59.258Z,-2.18
2023-01-26T21:44:28.573Z,-2.18
2023-01-26T21:46:57.770Z,-2.25
2023-01-26T21:49:26.053Z,-2.17
2023-01-26T21:52:21.291Z,-2.20
2023-01-26T21:54:49.087Z,-2.16
2023-01-26T21:57:34.803Z,-2.18
2023-01-26T22:00:03.187Z,-2.30
2023-01-26T22:02:32.510Z,-2.25
2023-01-26T22:05:00.391Z,-2.32
2023-01-26T22:07:32.078Z,-2.27
2023-01-26T22:09:59.901Z,-2.28
2023-01-26T22:12:27.753Z,-2.26
2023-01-26T22:14:55.597Z,-2.24
2023-01-26T22:17:23.546Z,-2.24
2023-01-26T22:19:51.387Z,-2.19
2023-01-26T22:22:19.223Z,-2.20
2023-01-26T22:24:48.373Z,-2.21
2023-01-26T22:27:16.182Z,-2.19
2023-01-26T22:29:43.988Z,-2.21
2023-01-26T22:32:11.905Z,-2.23
2023-01-26T22:34:39.746Z,-2.21
2023-01-26T22:37:07.553Z,-2.22
2023-01-26T22:39:35.414Z,-2.25
2023-01-26T22:42:04.777Z,-2.21
2023-01-26T22:44:32.702Z,-2.25
2023-01-26T22:47:01.363Z,-2.22
2023-01-26T22:49:29.894Z,-2.20
2023-01-26T22:51:57.729Z,-2.16
2023-01-26T22:54:26.094Z,-2.23
2023-01-26T22:56:54.113Z,-2.19
2023-01-26T22:59:23.467Z,-2.21
2023-01-26T23:01:51.267Z,-2.24
2023-01-26T23:04:19.351Z,-2.20
2023-01-26T23:06:47.225Z,-2.19
2023-01-26T23:09:15.054Z,-2.23
2023-01-26T23:11:42.894Z,-2.25
2023-01-26T23:14:10.734Z,-2.18
2023-01-26T23:16:39.948Z,-2.23
2023-01-26T23:19:07.816Z,-2.20
2023-01-26T23:21:35.662Z,-2.22
2023-01-26T23:24:03.527Z,-2.23
2023-01-26T23:26:31.449Z,-2.21
2023-01-26T23:28:59.266Z,-2.22
2023-01-26T23:31:27.531Z,-2.24
2023-01-26T23:33:56.930Z,-2.21
2023-01-26T23:36:24.852Z,-2.25
2023-01-26T23:38:52.707Z,-2.28
2023-01-26T23:41:20.589Z,-2.25
2023-01-26T23:43:48.392Z,-2.27
2023-01-26T23:46:16.413Z,-2.21
2023-01-26T23:48:44.339Z,-2.28
2023-01-26T23:51:13.634Z,-2.29
2023-01-26T23:53:41.834Z,-2.26
2023-01-26T23:56:11.831Z,-2.31
2023-01-26T23:58:39.730Z,-2.28
